createdAt,value
2023-04-17T00:02:15.891Z,102108.72
2023-04-17T00:04:43.345Z,102097.59
2023-04-17T00:07:13.344Z,102105.56
2023-04-17T00:09:40.366Z,102099.31
2023-04-17T00:12:09.796Z,102105.28
2023-04-17T00:14:36.880Z,102100.28
2023-04-17T00:17:03.954Z,102103.56
2023-04-17T00:19:35.650Z,102106.13
2023-04-17T00:22:05.613Z,102105.72
2023-04-17T00:24:32.619Z,102103.31
2023-04-17T00:26:59.668Z,102107.88
2023-04-17T00:29:29.012Z,102108.00
2023-04-17T00:32:01.017Z,102097.84
2023-04-17T00:34:30.586Z,102108.69
2023-04-17T00:36:59.130Z,102103.03
2023-04-17T00:39:28.147Z,102100.66
2023-04-17T00:41:55.172Z,102106.69
2023-04-17T00:44:24.587Z,102101.09
2023-04-17T00:46:52.006Z,102103.13
2023-04-17T00:49:22.460Z,102096.53
2023-04-17T00:51:50.422Z,102094.97
2023-04-17T00:54:19.234Z,102096.66
2023-04-17T00:56:46.485Z,102099.75
2023-04-17T00:59:18.581Z,102097.31
2023-04-17T01:01:48.087Z,102098.34
2023-04-17T01:04:15.297Z,102095.50
2023-04-17T01:06:42.349Z,102096.41
2023-04-17T01:09:10.009Z,102093.72
2023-04-17T01:11:37.323Z,102094.34
2023-04-17T01:14:04.395Z,102098.81
2023-04-17T01:16:35.638Z,102094.38
2023-04-17T01:19:02.626Z,102089.41
2023-04-17T01:21:32.363Z,102094.66
2023-04-17T01:24:06.303Z,102095.00
2023-04-17T01:26:36.828Z,102096.84
2023-04-17T01:29:04.234Z,102101.53
2023-04-17T01:31:31.663Z,102089.78
2023-04-17T01:34:01.198Z,102097.66
2023-04-17T01:36:28.512Z,102094.06
2023-04-17T01:38:55.790Z,102101.34
2023-04-17T01:41:22.741Z,102102.09
2023-04-17T01:43:50.401Z,102095.53
2023-04-17T01:46:19.512Z,102091.22
2023-04-17T01:48:46.924Z,102086.34
2023-04-17T01:51:14.008Z,102095.81
2023-04-17T01:53:41.476Z,102093.25
2023-04-17T01:56:08.828Z,102106.09
2023-04-17T01:58:38.236Z,102105.25
2023-04-17T02:01:05.680Z,102108.06
2023-04-17T02:03:33.289Z,102106.88
2023-04-17T02:06:00.461Z,102100.88
2023-04-17T02:08:29.941Z,102100.88
2023-04-17T02:10:57.080Z,102104.63
2023-04-17T02:13:27.130Z,102121.72
2023-04-17T02:15:54.253Z,102124.72
2023-04-17T02:18:21.304Z,102112.31
2023-04-17T02:20:48.434Z,102120.53
2023-04-17T02:23:17.479Z,102117.13
2023-04-17T02:25:44.445Z,102119.09
2023-04-17T02:28:11.380Z,102117.66
2023-04-17T02:30:38.593Z,102117.25
2023-04-17T02:33:08.321Z,102127.09
2023-04-17T02:35:38.721Z,102130.66
2023-04-17T02:38:05.597Z,102132.94
2023-04-17T02:40:34.976Z,102122.09
2023-04-17T02:43:04.663Z,102127.38
2023-04-17T02:45:34.283Z,102123.53
2023-04-17T02:48:01.374Z,102129.94
2023-04-17T02:50:33.438Z,102124.91
2023-04-17T02:53:00.382Z,102124.03
2023-04-17T02:55:27.305Z,102127.03
2023-04-17T02:57:54.247Z,102124.13
2023-04-17T03:00:26.395Z,102128.41
2023-04-17T03:02:53.641Z,102125.78
2023-04-17T03:05:23.529Z,102125.16
2023-04-17T03:07:51.546Z,102127.09
2023-04-17T03:10:19.090Z,102130.47
2023-04-17T03:12:46.289Z,102132.44
2023-04-17T03:15:13.417Z,102127.28
2023-04-17T03:17:42.766Z,102125.56
2023-04-17T03:20:10.102Z,102127.28
2023-04-17T03:22:39.284Z,102128.75
2023-04-17T03:25:06.820Z,102128.16
2023-04-17T03:27:33.776Z,102134.44
2023-04-17T03:30:00.725Z,102132.38
2023-04-17T03:32:29.736Z,102128.75
2023-04-17T03:34:58.971Z,102137.50
2023-04-17T03:37:25.840Z,102133.84
2023-04-17T03:39:52.808Z,102137.28
2023-04-17T03:42:22.246Z,102136.09
2023-04-17T03:44:53.692Z,102130.47
2023-04-17T03:47:23.874Z,102136.75
2023-04-17T03:49:53.491Z,102136.88
2023-04-17T03:52:25.059Z,102138.41
2023-04-17T03:54:54.625Z,102139.13
2023-04-17T03:57:21.634Z,102142.09
2023-04-17T03:59:48.577Z,102145.75
2023-04-17T04:02:15.651Z,102137.63
2023-04-17T04:04:48.280Z,102146.88
2023-04-17T04:07:15.276Z,102148.28
2023-04-17T04:09:42.479Z,102148.34
2023-04-17T04:12:09.688Z,102155.41
2023-04-17T04:14:41.772Z,102151.56
2023-04-17T04:17:11.299Z,102157.91
2023-04-17T04:19:43.664Z,102153.16
2023-04-17T04:22:16.629Z,102159.25
2023-04-17T04:24:47.127Z,102163.88
2023-04-17T04:27:17.994Z,102170.75
2023-04-17T04:29:48.981Z,102162.28
2023-04-17T04:32:16.861Z,102164.19
2023-04-17T04:34:44.754Z,102163.22
2023-04-17T04:37:17.886Z,102161.50
2023-04-17T04:39:53.918Z,102159.03
2023-04-17T04:42:22.389Z,102161.69
2023-04-17T04:44:49.567Z,102164.88
2023-04-17T04:47:17.228Z,102170.28
2023-04-17T04:49:44.509Z,102173.66
2023-04-17T04:52:11.670Z,102171.47
2023-04-17T04:54:40.982Z,102175.72
2023-04-17T04:57:08.302Z,102170.22
2023-04-17T04:59:39.070Z,102170.41
2023-04-17T05:02:09.179Z,102175.97
2023-04-17T05:04:38.467Z,102179.28
2023-04-17T05:07:05.931Z,102184.97
2023-04-17T05:09:33.687Z,102182.25
2023-04-17T05:12:03.307Z,102188.81
2023-04-17T05:14:32.894Z,102189.25
2023-04-17T05:17:02.770Z,102200.66
2023-04-17T05:19:32.314Z,102197.91
2023-04-17T05:21:59.383Z,102205.63
2023-04-17T05:24:29.306Z,102208.13
2023-04-17T05:26:57.199Z,102208.81
2023-04-17T05:29:25.274Z,102207.63
2023-04-17T05:31:53.068Z,102207.88
2023-04-17T05:34:22.598Z,102221.03
2023-04-17T05:36:49.520Z,102217.06
2023-04-17T05:39:20.275Z,102216.31
2023-04-17T05:41:49.910Z,102220.63
2023-04-17T05:44:19.239Z,102221.66
2023-04-17T05:46:46.304Z,102224.47
2023-04-17T05:49:16.094Z,102223.78
2023-04-17T05:51:43.010Z,102218.13
2023-04-17T05:54:12.558Z,102223.72
2023-04-17T05:56:47.619Z,102228.59
2023-04-17T05:59:17.335Z,102229.47
2023-04-17T06:01:44.441Z,102221.81
2023-04-17T06:04:14.594Z,102224.13
2023-04-17T06:06:44.047Z,102221.72
2023-04-17T06:09:11.499Z,102223.44
2023-04-17T06:11:39.206Z,102224.44
2023-04-17T06:14:06.453Z,102226.13
2023-04-17T06:16:38.522Z,102233.44
2023-04-17T06:19:05.670Z,102230.09
2023-04-17T06:21:32.904Z,102230.94
2023-04-17T06:23:59.960Z,102236.22
2023-04-17T06:26:28.170Z,102241.50
2023-04-17T06:28:56.023Z,102241.25
2023-04-17T06:31:23.140Z,102233.13
2023-04-17T06:33:52.850Z,102240.31
2023-04-17T06:36:19.878Z,102235.97
2023-04-17T06:38:49.265Z,102241.66
2023-04-17T06:41:16.444Z,102245.44
2023-04-17T06:43:43.353Z,102243.47
2023-04-17T06:46:15.238Z,102244.59
2023-04-17T06:48:44.461Z,102246.63
2023-04-17T06:51:14.451Z,102238.28
2023-04-17T06:53:43.907Z,102249.66
2023-04-17T06:56:14.034Z,102246.38
2023-04-17T06:58:46.059Z,102244.84
2023-04-17T07:01:14.237Z,102251.16
2023-04-17T07:03:42.870Z,102258.56
2023-04-17T07:06:12.822Z,102253.22
2023-04-17T07:08:44.385Z,102253.63
2023-04-17T07:11:11.248Z,102259.03
2023-04-17T07:13:38.294Z,102258.97
2023-04-17T07:16:06.264Z,102267.97
2023-04-17T07:18:35.687Z,102269.88
2023-04-17T07:21:04.685Z,102273.34
2023-04-17T07:23:33.702Z,102280.13
2023-04-17T07:26:00.777Z,102276.06
2023-04-17T07:28:27.633Z,102278.28
2023-04-17T07:30:58.091Z,102282.72
2023-04-17T07:33:25.127Z,102290.44
2023-04-17T07:35:54.482Z,102290.63
2023-04-17T07:38:21.614Z,102284.34
2023-04-17T07:40:48.503Z,102279.53
2023-04-17T07:43:18.306Z,102288.78
2023-04-17T07:45:48.922Z,102282.78
2023-04-17T07:48:19.061Z,102285.84
2023-04-17T07:50:46.160Z,102288.91
2023-04-17T07:53:13.209Z,102292.72
2023-04-17T07:55:43.098Z,102290.78
2023-04-17T07:58:11.398Z,102294.56
2023-04-17T08:00:44.014Z,102288.00
2023-04-17T08:03:11.382Z,102289.56
2023-04-17T08:05:38.481Z,102292.78
2023-04-17T08:08:05.809Z,102285.63
2023-04-17T08:10:32.710Z,102289.25
2023-04-17T08:13:01.770Z,102283.28
2023-04-17T08:15:28.835Z,102289.75
2023-04-17T08:18:00.276Z,102292.09
2023-04-17T08:20:27.304Z,102284.72
2023-04-17T08:23:01.313Z,102287.16
2023-04-17T08:25:28.669Z,102290.97
2023-04-17T08:27:55.913Z,102291.91
2023-04-17T08:30:26.714Z,102291.22
2023-04-17T08:32:55.584Z,102296.91
2023-04-17T08:35:26.548Z,102298.25
2023-04-17T08:37:55.512Z,102295.66
2023-04-17T08:40:24.260Z,102298.34
2023-04-17T08:42:53.884Z,102299.31
2023-04-17T08:45:24.012Z,102296.03
2023-04-17T08:47:53.242Z,102290.81
2023-04-17T08:50:22.161Z,102301.59
2023-04-17T08:52:57.270Z,102297.88
2023-04-17T08:55:30.122Z,102296.63
2023-04-17T08:58:03.512Z,102300.00
2023-04-17T09:00:36.263Z,102295.81
2023-04-17T09:03:07.800Z,102299.66
2023-04-17T09:05:41.756Z,102291.19
2023-04-17T09:08:24.001Z,102293.09
2023-04-17T09:10:55.613Z,102291.78
2023-04-17T09:13:27.785Z,102289.47
2023-04-17T09:16:09.108Z,102293.63
2023-04-17T09:18:40.387Z,102297.47
2023-04-17T09:21:09.900Z,102298.44
2023-04-17T09:24:07.523Z,102298.59
2023-04-17T09:26:34.554Z,102296.59
2023-04-17T09:29:03.720Z,102297.56
2023-04-17T09:31:34.258Z,102294.91
2023-04-17T09:34:04.432Z,102304.28
2023-04-17T09:36:37.032Z,102300.16
2023-04-17T09:39:25.651Z,102299.72
2023-04-17T09:42:04.224Z,102291.25
2023-04-17T09:44:31.441Z,102299.50
2023-04-17T09:47:02.889Z,102292.81
2023-04-17T09:50:00.060Z,102292.78
2023-04-17T09:52:30.914Z,102293.31
2023-04-17T09:54:57.980Z,102300.22
2023-04-17T09:57:24.975Z,102296.59
2023-04-17T09:59:52.614Z,102295.88
2023-04-17T10:02:22.845Z,102293.13
2023-04-17T10:04:52.927Z,102298.66
2023-04-17T10:07:19.925Z,102291.25
2023-04-17T10:09:47.321Z,102292.97
2023-04-17T10:12:18.841Z,102293.25
2023-04-17T10:14:50.971Z,102290.25
2023-04-17T10:17:31.454Z,102295.97
2023-04-17T10:20:24.997Z,102287.34
2023-04-17T10:22:56.354Z,102281.25
2023-04-17T10:25:28.080Z,102282.63
2023-04-17T10:27:55.936Z,102286.09
2023-04-17T10:30:23.853Z,102274.50
2023-04-17T10:33:12.979Z,102278.78
2023-04-17T10:35:42.560Z,102285.41
2023-04-17T10:38:11.687Z,102278.00
2023-04-17T10:40:39.763Z,102276.63
2023-04-17T10:43:17.949Z,102277.72
2023-04-17T10:46:03.304Z,102275.72
2023-04-17T10:48:42.361Z,102273.47
2023-04-17T10:51:21.892Z,102276.06
2023-04-17T10:54:10.200Z,102277.78
2023-04-17T10:56:46.248Z,102282.09
2023-04-17T10:59:22.669Z,102265.69
2023-04-17T11:01:52.921Z,102263.63
2023-04-17T11:04:29.235Z,102275.25
2023-04-17T11:06:59.185Z,102268.53
2023-04-17T11:09:30.913Z,102260.88
2023-04-17T11:12:04.260Z,102257.19
2023-04-17T11:14:32.074Z,102258.47
2023-04-17T11:16:59.101Z,102269.09
2023-04-17T11:19:29.365Z,102263.63
2023-04-17T11:21:58.547Z,102264.50
2023-04-17T11:24:31.151Z,102268.34
2023-04-17T11:27:02.120Z,102264.06
2023-04-17T11:29:31.776Z,102266.41
2023-04-17T11:32:01.266Z,102280.03
2023-04-17T11:34:30.733Z,102274.72
2023-04-17T11:37:00.532Z,102272.16
2023-04-17T11:39:33.635Z,102279.41
2023-04-17T11:42:05.005Z,102268.16
2023-04-17T11:44:37.220Z,102282.81
2023-04-17T11:47:07.363Z,102275.03
2023-04-17T11:49:39.240Z,102280.19
2023-04-17T11:52:08.783Z,102271.94
2023-04-17T11:54:41.824Z,102281.53
2023-04-17T11:57:16.398Z,102272.56
2023-04-17T11:59:46.134Z,102277.50
2023-04-17T12:02:15.175Z,102286.91
2023-04-17T12:04:42.512Z,102282.25
2023-04-17T12:07:24.845Z,102284.47
2023-04-17T12:09:57.071Z,102276.28
2023-04-17T12:12:24.319Z,102270.28
2023-04-17T12:14:53.706Z,102281.28
2023-04-17T12:17:21.471Z,102280.44
2023-04-17T12:19:48.499Z,102290.97
2023-04-17T12:22:15.468Z,102286.94
2023-04-17T12:24:44.919Z,102284.16
2023-04-17T12:27:11.853Z,102292.78
2023-04-17T12:29:44.438Z,102271.75
2023-04-17T12:32:16.734Z,102299.06
2023-04-17T12:34:43.648Z,102284.25
2023-04-17T12:37:11.546Z,102273.44
2023-04-17T12:39:38.535Z,102295.41
2023-04-17T12:42:05.623Z,102292.03
2023-04-17T12:44:32.489Z,102308.31
2023-04-17T12:47:01.460Z,102297.91
2023-04-17T12:49:32.895Z,102298.34
2023-04-17T12:52:02.482Z,102279.09
2023-04-17T12:54:34.938Z,102289.34
2023-04-17T12:57:02.150Z,102281.13
2023-04-17T12:59:31.648Z,102280.59
2023-04-17T13:02:04.188Z,102283.88
2023-04-17T13:04:33.749Z,102284.16
2023-04-17T13:07:03.429Z,102291.50
2023-04-17T13:09:32.929Z,102293.28
2023-04-17T13:12:00.003Z,102297.78
2023-04-17T13:14:28.952Z,102299.47
2023-04-17T13:16:56.424Z,102286.75
2023-04-17T13:19:23.506Z,102295.50
2023-04-17T13:21:51.920Z,102291.78
2023-04-17T13:24:21.299Z,102295.28
2023-04-17T13:26:48.294Z,102292.88
2023-04-17T13:29:19.520Z,102285.88
2023-04-17T13:31:46.876Z,102281.53
2023-04-17T13:34:13.724Z,102291.66
2023-04-17T13:36:45.064Z,102283.97
2023-04-17T13:39:15.072Z,102272.34
2023-04-17T13:41:44.845Z,102279.50
2023-04-17T13:44:13.592Z,102276.50
2023-04-17T13:46:44.132Z,102265.78
2023-04-17T13:49:11.874Z,102261.06
2023-04-17T13:51:41.200Z,102279.63
2023-04-17T13:54:10.184Z,102274.50
2023-04-17T13:56:37.402Z,102277.59
2023-04-17T13:59:07.778Z,102281.13
2023-04-17T14:01:40.313Z,102269.66
2023-04-17T14:04:10.871Z,102272.03
2023-04-17T14:06:37.844Z,102273.44
2023-04-17T14:09:05.824Z,102272.47
2023-04-17T14:11:35.248Z,102275.41
2023-04-17T14:14:02.118Z,102264.31
2023-04-17T14:16:29.461Z,102262.66
2023-04-17T14:19:03.837Z,102268.91
2023-04-17T14:21:39.294Z,102275.22
2023-04-17T14:24:06.484Z,102266.00
2023-04-17T14:26:38.535Z,102269.81
2023-04-17T14:29:14.162Z,102267.72
2023-04-17T14:31:41.523Z,102277.47
2023-04-17T14:34:13.189Z,102263.94
2023-04-17T14:36:40.048Z,102249.69
2023-04-17T14:39:07.019Z,102248.94
2023-04-17T14:41:34.982Z,102259.56
2023-04-17T14:44:07.418Z,102256.66
2023-04-17T14:46:34.303Z,102262.84
2023-04-17T14:49:01.187Z,102263.63
2023-04-17T14:51:28.385Z,102266.38
2023-04-17T14:53:57.863Z,102249.22
2023-04-17T14:56:27.392Z,102248.34
2023-04-17T14:58:56.482Z,102251.75
2023-04-17T15:01:23.443Z,102257.28
2023-04-17T15:03:50.808Z,102267.47
2023-04-17T15:06:18.905Z,102264.97
2023-04-17T15:08:46.169Z,102276.00
2023-04-17T15:11:13.164Z,102261.84
2023-04-17T15:13:42.391Z,102272.59
2023-04-17T15:16:10.674Z,102262.84
2023-04-17T15:18:40.347Z,102275.66
2023-04-17T15:21:07.561Z,102269.25
2023-04-17T15:23:37.214Z,102270.97
2023-04-17T15:26:04.249Z,102279.53
2023-04-17T15:28:31.396Z,102264.84
2023-04-17T15:30:58.262Z,102269.16
2023-04-17T15:33:30.313Z,102277.63
2023-04-17T15:35:58.856Z,102276.47
2023-04-17T15:38:28.483Z,102283.47
2023-04-17T15:40:55.726Z,102282.03
2023-04-17T15:43:23.157Z,102278.19
2023-04-17T15:45:52.685Z,102301.44
2023-04-17T15:48:21.867Z,102291.75
2023-04-17T15:50:53.452Z,102296.06
2023-04-17T15:53:22.804Z,102295.03
2023-04-17T15:55:49.640Z,102284.06
2023-04-17T15:58:16.570Z,102296.03
2023-04-17T16:00:43.406Z,102303.56
2023-04-17T16:03:10.579Z,102304.41
2023-04-17T16:05:39.761Z,102312.41
2023-04-17T16:08:06.695Z,102302.34
2023-04-17T16:10:35.073Z,102322.84
2023-04-17T16:13:02.038Z,102316.09
2023-04-17T16:15:31.501Z,102314.91
2023-04-17T16:18:01.169Z,102331.06
2023-04-17T16:20:30.978Z,102312.53
2023-04-17T16:23:00.132Z,102326.66
2023-04-17T16:25:26.950Z,102328.44
2023-04-17T16:27:53.921Z,102326.81
2023-04-17T16:30:23.882Z,102330.31
2023-04-17T16:32:51.337Z,102335.06
2023-04-17T16:35:18.477Z,102343.31
2023-04-17T16:37:45.554Z,102336.41
2023-04-17T16:40:13.033Z,102348.72
2023-04-17T16:42:40.693Z,102342.94
2023-04-17T16:45:08.083Z,102352.97
2023-04-17T16:47:40.663Z,102350.34
2023-04-17T16:50:10.521Z,102360.28
2023-04-17T16:52:42.023Z,102355.47
2023-04-17T16:55:09.613Z,102359.66
2023-04-17T16:57:40.601Z,102358.91
2023-04-17T17:00:09.979Z,102360.50
2023-04-17T17:02:37.744Z,102356.84
2023-04-17T17:05:08.186Z,102361.97
2023-04-17T17:07:39.633Z,102370.63
2023-04-17T17:10:07.675Z,102367.88
2023-04-17T17:12:39.410Z,102366.69
2023-04-17T17:15:09.775Z,102369.88
2023-04-17T17:17:36.806Z,102374.94
2023-04-17T17:20:07.378Z,102376.94
2023-04-17T17:22:36.534Z,102385.59
2023-04-17T17:25:03.707Z,102388.50
2023-04-17T17:27:30.617Z,102376.75
2023-04-17T17:29:59.690Z,102391.94
2023-04-17T17:32:27.344Z,102386.25
2023-04-17T17:34:59.018Z,102387.94
2023-04-17T17:39:54.222Z,102387.69
2023-04-17T17:42:21.149Z,102393.25
2023-04-17T17:44:50.183Z,102390.97
2023-04-17T17:47:19.299Z,102395.13
2023-04-17T17:49:49.453Z,102390.53
2023-04-17T17:52:18.543Z,102391.53
2023-04-17T17:54:48.403Z,102393.94
2023-04-17T17:57:15.314Z,102393.38
2023-04-17T17:59:42.367Z,102394.97
2023-04-17T18:02:11.477Z,102397.72
2023-04-17T18:04:41.048Z,102394.84
2023-04-17T18:07:10.961Z,102394.28
2023-04-17T18:09:37.775Z,102392.13
2023-04-17T18:12:05.511Z,102388.25
2023-04-17T18:14:34.472Z,102395.00
2023-04-17T18:17:01.334Z,102390.97
2023-04-17T18:19:28.302Z,102403.44
2023-04-17T18:21:55.269Z,102397.13
2023-04-17T18:24:22.103Z,102396.13
2023-04-17T18:26:51.093Z,102406.31
2023-04-17T18:29:17.952Z,102398.16
2023-04-17T18:31:45.806Z,102406.44
2023-04-17T18:34:15.424Z,102396.28
2023-04-17T18:36:44.630Z,102408.00
2023-04-17T18:39:20.056Z,102421.72
2023-04-17T18:41:49.954Z,102415.97
2023-04-17T18:44:16.945Z,102405.84
2023-04-17T18:46:43.857Z,102404.28
2023-04-17T18:49:10.832Z,102416.63
2023-04-17T18:51:47.646Z,102407.44
2023-04-17T18:54:17.731Z,102411.75
2023-04-17T18:56:44.979Z,102418.31
2023-04-17T18:59:14.252Z,102417.44
2023-04-17T19:01:44.481Z,102422.56
2023-04-17T19:04:11.629Z,102422.41
2023-04-17T19:06:38.721Z,102430.94
2023-04-17T19:09:05.698Z,102426.56
2023-04-17T19:11:33.481Z,102426.41
2023-04-17T19:14:00.423Z,102433.19
2023-04-17T19:16:27.406Z,102429.47
2023-04-17T19:18:54.317Z,102426.56
2023-04-17T19:21:23.408Z,102441.34
2023-04-17T19:23:51.367Z,102429.31
2023-04-17T19:26:22.557Z,102442.00
2023-04-17T19:28:55.038Z,102434.38
2023-04-17T19:31:24.348Z,102438.69
2023-04-17T19:33:53.021Z,102445.16
2023-04-17T19:36:22.342Z,102446.72
2023-04-17T19:38:50.204Z,102443.00
2023-04-17T19:41:19.107Z,102446.44
2023-04-17T19:43:49.576Z,102449.09
2023-04-17T19:46:19.389Z,102451.63
2023-04-17T19:48:47.297Z,102458.63
2023-04-17T19:51:17.837Z,102453.84
2023-04-17T19:53:48.019Z,102456.44
2023-04-17T19:56:15.456Z,102458.09
2023-04-17T19:58:42.763Z,102461.25
2023-04-17T20:01:09.897Z,102466.41
2023-04-17T20:03:39.943Z,102460.69
2023-04-17T20:06:07.532Z,102464.66
2023-04-17T20:08:36.952Z,102462.91
2023-04-17T20:11:05.192Z,102466.56
2023-04-17T20:13:34.501Z,102477.19
2023-04-17T20:16:01.524Z,102469.88
2023-04-17T20:18:28.618Z,102469.34
2023-04-17T20:20:55.727Z,102470.34
2023-04-17T20:23:25.586Z,102473.31
2023-04-17T20:25:52.460Z,102471.34
2023-04-17T20:28:22.858Z,102471.44
2023-04-17T20:30:50.092Z,102472.06
2023-04-17T20:33:16.969Z,102473.56
2023-04-17T20:35:44.572Z,102481.84
2023-04-17T20:38:14.028Z,102475.44
2023-04-17T20:40:41.312Z,102478.41
2023-04-17T20:43:12.981Z,102473.94
2023-04-17T20:45:39.856Z,102469.53
2023-04-17T20:48:10.131Z,102474.31
2023-04-17T20:50:39.512Z,102473.81
2023-04-17T20:53:06.554Z,102471.34
2023-04-17T20:55:33.425Z,102473.06
2023-04-17T20:58:00.261Z,102473.34
2023-04-17T21:00:29.775Z,102477.63
2023-04-17T21:02:56.756Z,102471.06
2023-04-17T21:05:23.751Z,102465.97
2023-04-17T21:07:54.300Z,102472.34
2023-04-17T21:10:21.445Z,102476.41
2023-04-17T21:12:51.058Z,102471.97
2023-04-17T21:15:18.193Z,102470.19
2023-04-17T21:17:48.069Z,102468.38
2023-04-17T21:20:15.246Z,102476.91
2023-04-17T21:22:42.240Z,102467.78
2023-04-17T21:25:09.782Z,102475.78
2023-04-17T21:27:36.990Z,102476.91
2023-04-17T21:30:04.518Z,102481.19
2023-04-17T21:32:31.577Z,102477.50
2023-04-17T21:35:00.921Z,102476.78
2023-04-17T21:37:27.830Z,102483.94
2023-04-17T21:39:56.903Z,102486.28
2023-04-17T21:42:25.592Z,102489.97
2023-04-17T21:44:55.274Z,102489.47
2023-04-17T21:47:22.250Z,102495.38
2023-04-17T21:49:52.612Z,102494.38
2023-04-17T21:52:24.012Z,102489.09
2023-04-17T21:54:50.883Z,102496.25
2023-04-17T21:57:19.967Z,102501.03
2023-04-17T21:59:46.796Z,102501.53
2023-04-17T22:02:16.851Z,102495.91
2023-04-17T22:04:48.367Z,102500.09
2023-04-17T22:07:15.594Z,102502.06
2023-04-17T22:09:42.466Z,102490.22
2023-04-17T22:12:20.782Z,102505.50
2023-04-17T22:14:48.356Z,102495.53
2023-04-17T22:17:18.302Z,102497.00
2023-04-17T22:19:48.171Z,102493.31
2023-04-17T22:22:18.269Z,102500.81
2023-04-17T22:24:45.074Z,102499.34
2023-04-17T22:27:14.299Z,102505.00
2023-04-17T22:29:41.149Z,102499.22
2023-04-17T22:32:08.032Z,102499.44
2023-04-17T22:34:35.004Z,102500.44
2023-04-17T22:37:04.058Z,102507.00
2023-04-17T22:39:31.608Z,102501.56
2023-04-17T22:41:58.423Z,102502.06
2023-04-17T22:44:25.261Z,102495.66
2023-04-17T22:46:52.054Z,102503.28
2023-04-17T22:49:19.736Z,102512.53
2023-04-17T22:51:47.899Z,102503.78
2023-04-17T22:54:22.133Z,102509.09
2023-04-17T22:56:50.059Z,102506.38
2023-04-17T22:59:19.343Z,102516.47
2023-04-17T23:01:46.264Z,102516.47
2023-04-17T23:04:15.796Z,102510.69
2023-04-17T23:06:42.951Z,102514.38
2023-04-17T23:09:14.316Z,102517.09
2023-04-17T23:11:45.752Z,102520.03
2023-04-17T23:14:15.061Z,102517.44
2023-04-17T23:16:44.249Z,102520.66
2023-04-17T23:19:11.133Z,102521.50
2023-04-17T23:21:37.970Z,102523.00
2023-04-17T23:24:04.839Z,102522.44
2023-04-17T23:26:33.888Z,102513.47
2023-04-17T23:29:00.865Z,102515.22
2023-04-17T23:31:27.857Z,102511.66
2023-04-17T23:33:56.798Z,102519.56
2023-04-17T23:36:26.875Z,102516.84
2023-04-17T23:38:58.205Z,102509.22
2023-04-17T23:41:26.649Z,102518.31
2023-04-17T23:43:58.114Z,102514.34
2023-04-17T23:46:25.122Z,102515.31
2023-04-17T23:48:52.047Z,102517.28
2023-04-17T23:51:19.578Z,102514.13
2023-04-17T23:53:49.175Z,102523.19
2023-04-17T23:56:16.220Z,102529.06
2023-04-17T23:58:45.556Z,102528.38
